createdAt,value
2023-03-01T00:04:15.400Z,98.94
2023-03-01T00:09:18.876Z,99.58
2023-03-01T00:14:21.816Z,99.27
2023-03-01T00:19:26.211Z,98.61
2023-03-01T00:24:28.918Z,98.31
2023-03-01T00:29:31.516Z,98.28
2023-03-01T00:34:38.720Z,98.22
2023-03-01T00:39:41.345Z,98.49
2023-03-01T00:44:44.685Z,98.42
2023-03-01T00:49:51.171Z,98.27
2023-03-01T00:54:54.934Z,98.53
2023-03-01T00:59:58.066Z,98.38
2023-03-01T01:05:03.383Z,99.36
2023-03-01T01:10:07.071Z,99.87
2023-03-01T01:15:13.377Z,99.51
2023-03-01T01:20:17.707Z,99.61
2023-03-01T01:25:20.739Z,99.29
2023-03-01T01:30:23.401Z,100.00
2023-03-01T01:35:27.447Z,99.70
2023-03-01T01:40:30.059Z,99.40
2023-03-01T01:45:35.605Z,99.78
2023-03-01T01:50:42.423Z,99.93
2023-03-01T01:55:49.371Z,99.91
2023-03-01T02:00:51.946Z,99.68
2023-03-01T02:06:00.471Z,99.56
2023-03-01T02:11:05.089Z,99.39
2023-03-01T02:16:11.322Z,100.00
2023-03-01T02:21:27.141Z,99.34
2023-03-01T02:26:38.852Z,99.59
2023-03-01T02:31:45.923Z,100.00
2023-03-01T02:36:51.555Z,100.00
2023-03-01T02:41:56.842Z,100.00
2023-03-01T02:47:04.346Z,100.00
2023-03-01T02:52:31.906Z,100.00
2023-03-01T02:57:37.284Z,100.00
2023-03-01T03:02:41.842Z,100.00
2023-03-01T03:08:09.045Z,100.00
2023-03-01T03:13:14.779Z,100.00
2023-03-01T03:18:19.716Z,100.00
2023-03-01T03:23:23.926Z,99.92
2023-03-01T03:28:26.584Z,100.00
2023-03-01T03:33:30.775Z,100.00
2023-03-01T03:38:36.638Z,100.00
2023-03-01T03:43:43.486Z,100.00
2023-03-01T03:48:48.085Z,100.00
2023-03-01T03:53:50.767Z,100.00
2023-03-01T03:58:53.429Z,100.00
2023-03-01T04:03:57.390Z,100.00
2023-03-01T04:09:03.318Z,100.00
2023-03-01T04:14:06.011Z,100.00
2023-03-01T04:19:10.441Z,100.00
2023-03-01T04:24:13.488Z,100.00
2023-03-01T04:29:16.105Z,100.00
2023-03-01T04:34:20.372Z,100.00
2023-03-01T04:39:23.450Z,100.00
2023-03-01T04:44:29.641Z,100.00
2023-03-01T04:49:33.701Z,100.00
2023-03-01T04:54:37.341Z,100.00
2023-03-01T04:59:40.112Z,100.00
2023-03-01T05:04:44.276Z,100.00
2023-03-01T05:09:47.443Z,100.00
2023-03-01T05:14:51.983Z,100.00
2023-03-01T05:19:56.594Z,100.00
2023-03-01T05:24:59.523Z,100.00
2023-03-01T05:30:14.085Z,100.00
2023-03-01T05:35:19.971Z,100.00
2023-03-01T05:40:25.048Z,100.00
2023-03-01T05:45:29.434Z,100.00
2023-03-01T05:50:35.579Z,100.00
2023-03-01T05:56:12.434Z,100.00
2023-03-01T06:01:15.255Z,100.00
2023-03-01T06:06:19.762Z,100.00
2023-03-01T06:11:22.941Z,100.00
2023-03-01T06:16:25.587Z,100.00
2023-03-01T06:21:29.642Z,100.00
2023-03-01T06:26:32.654Z,100.00
2023-03-01T06:31:35.820Z,100.00
2023-03-01T06:36:39.950Z,100.00
2023-03-01T06:41:42.652Z,100.00
2023-03-01T06:46:45.309Z,100.00
2023-03-01T06:51:49.397Z,100.00
2023-03-01T06:56:52.505Z,100.00
2023-03-01T07:01:55.261Z,100.00
2023-03-01T07:07:01.995Z,100.00
2023-03-01T07:12:04.960Z,100.00
2023-03-01T07:17:10.123Z,100.00
2023-03-01T07:22:14.162Z,100.00
2023-03-01T07:27:16.829Z,100.00
2023-03-01T07:32:22.460Z,100.00
2023-03-01T07:37:26.552Z,100.00
2023-03-01T07:42:29.277Z,100.00
2023-03-01T07:47:32.444Z,100.00
2023-03-01T07:52:36.587Z,100.00
2023-03-01T07:57:39.325Z,100.00
2023-03-01T08:02:42.920Z,100.00
2023-03-01T08:07:47.415Z,100.00
2023-03-01T08:13:06.485Z,100.00
2023-03-01T08:18:09.801Z,100.00
2023-03-01T08:23:14.289Z,99.86
2023-03-01T08:28:17.054Z,100.00
2023-03-01T08:33:19.732Z,99.26
2023-03-01T08:38:23.689Z,98.50
2023-03-01T08:43:26.559Z,99.36
2023-03-01T08:48:29.934Z,97.43
2023-03-01T08:53:33.949Z,97.48
2023-03-01T09:05:23.258Z,95.77
2023-03-01T09:24:02.139Z,93.12
2023-03-01T09:29:05.031Z,91.88
2023-03-01T09:34:10.599Z,92.56
2023-03-01T09:39:14.948Z,93.25
2023-03-01T09:44:29.622Z,90.52
2023-03-01T09:49:37.537Z,90.87
2023-03-01T09:54:41.636Z,90.32
2023-03-01T09:59:58.109Z,89.40
2023-03-01T10:05:14.882Z,87.54
2023-03-01T10:10:29.913Z,85.96
2023-03-01T10:15:37.926Z,88.57
2023-03-01T10:20:48.741Z,86.51
2023-03-01T10:26:27.372Z,84.73
2023-03-01T10:31:40.077Z,83.61
2023-03-01T10:36:44.791Z,85.05
2023-03-01T10:42:00.714Z,82.67
2023-03-01T10:47:03.524Z,85.38
2023-03-01T10:52:20.592Z,82.65
2023-03-01T10:57:51.308Z,84.24
2023-03-01T11:03:12.113Z,82.39
2023-03-01T11:08:15.287Z,82.69
2023-03-01T11:13:23.529Z,83.36
2023-03-01T11:18:44.265Z,83.20
2023-03-01T11:23:49.363Z,83.50
2023-03-01T11:29:02.842Z,80.82
2023-03-01T11:34:13.677Z,80.99
2023-03-01T11:39:29.229Z,79.89
2023-03-01T11:44:38.538Z,77.85
2023-03-01T11:49:56.097Z,78.57
2023-03-01T11:55:14.655Z,77.82
2023-03-01T12:00:29.928Z,75.57
2023-03-01T12:06:00.567Z,76.77
2023-03-01T12:11:18.638Z,74.71
2023-03-01T12:16:39.033Z,71.75
2023-03-01T12:21:53.984Z,73.77
2023-03-01T12:27:13.658Z,73.04
2023-03-01T12:32:32.008Z,73.85
2023-03-01T12:38:00.112Z,73.54
2023-03-01T12:43:19.423Z,72.20
2023-03-01T12:48:42.207Z,72.94
2023-03-01T12:53:49.438Z,71.77
2023-03-01T12:59:02.549Z,70.38
2023-03-01T13:04:21.244Z,71.09
2023-03-01T13:09:32.341Z,69.63
2023-03-01T13:14:46.123Z,68.10
2023-03-01T13:19:59.904Z,69.81
2023-03-01T13:25:16.640Z,68.98
2023-03-01T13:30:43.806Z,67.95
2023-03-01T13:35:48.969Z,67.61
2023-03-01T13:41:01.956Z,66.85
2023-03-01T13:46:12.112Z,64.96
2023-03-01T13:51:16.446Z,64.79
2023-03-01T13:56:26.976Z,64.00
2023-03-01T14:01:31.809Z,63.86
2023-03-01T14:06:37.245Z,65.86
2023-03-01T14:12:06.379Z,66.34
2023-03-01T14:17:36.059Z,63.28
2023-03-01T14:22:48.201Z,64.85
2023-03-01T14:27:58.165Z,66.58
2023-03-01T14:33:02.511Z,62.70
2023-03-01T14:38:06.656Z,66.91
2023-03-01T14:43:12.856Z,62.93
2023-03-01T14:48:15.898Z,66.73
2023-03-01T14:53:27.762Z,71.41
2023-03-01T14:58:30.783Z,62.68
2023-03-01T15:03:39.152Z,61.52
2023-03-01T15:08:53.035Z,61.63
2023-03-01T15:14:05.172Z,60.47
2023-03-01T15:26:16.755Z,63.12
2023-03-01T15:31:43.916Z,63.08
2023-03-01T15:36:54.779Z,63.83
2023-03-01T15:42:28.831Z,65.11
2023-03-01T15:54:59.981Z,63.50
2023-03-01T16:06:14.655Z,66.65
2023-03-01T16:11:24.992Z,67.45
2023-03-01T16:16:33.739Z,67.12
2023-03-01T16:21:53.775Z,69.22
2023-03-01T16:26:57.415Z,68.83
2023-03-01T16:32:27.730Z,70.27
2023-03-01T16:37:37.887Z,70.94
2023-03-01T16:42:44.434Z,71.18
2023-03-01T16:48:10.595Z,72.44
2023-03-01T16:53:15.028Z,72.02
2023-03-01T16:58:19.882Z,72.99
2023-03-01T17:03:26.773Z,73.22
2023-03-01T17:08:32.610Z,74.05
2023-03-01T17:13:36.472Z,73.63
2023-03-01T17:18:39.805Z,73.32
2023-03-01T17:23:48.096Z,74.30
2023-03-01T17:28:52.352Z,74.57
2023-03-01T17:33:57.500Z,74.55
2023-03-01T17:39:05.708Z,75.57
2023-03-01T17:44:16.795Z,75.60
2023-03-01T17:49:19.994Z,74.87
2023-03-01T17:54:24.325Z,74.88
2023-03-01T17:59:31.191Z,75.88
2023-03-01T18:04:41.833Z,75.83
2023-03-01T18:09:46.168Z,75.50
2023-03-01T18:14:53.579Z,76.09
2023-03-01T18:19:57.164Z,76.34
2023-03-01T18:25:01.997Z,76.04
2023-03-01T18:30:05.513Z,76.79
2023-03-01T18:35:37.212Z,89.26
2023-03-01T18:40:45.543Z,77.81
2023-03-01T18:45:50.414Z,76.52
2023-03-01T18:50:56.544Z,75.90
2023-03-01T18:56:29.546Z,75.32
2023-03-01T19:08:42.273Z,76.87
2023-03-01T19:13:51.860Z,79.66
2023-03-01T19:18:57.496Z,78.04
2023-03-01T19:24:09.032Z,78.68
2023-03-01T19:29:12.283Z,79.27
2023-03-01T19:34:15.688Z,79.82
2023-03-01T19:39:20.231Z,80.53
2023-03-01T19:44:24.878Z,80.28
2023-03-01T19:49:29.827Z,81.47
2023-03-01T19:54:34.029Z,80.79
2023-03-01T19:59:37.108Z,81.12
2023-03-01T20:04:40.018Z,81.22
2023-03-01T20:09:45.840Z,81.79
2023-03-01T20:14:55.180Z,81.81
2023-03-01T20:19:58.060Z,82.79
2023-03-01T20:25:04.064Z,82.57
2023-03-01T20:30:27.036Z,82.90
2023-03-01T20:35:33.190Z,82.36
2023-03-01T20:41:09.602Z,82.35
2023-03-01T20:46:15.251Z,82.97
2023-03-01T20:51:21.500Z,82.56
2023-03-01T20:56:36.560Z,83.04
2023-03-01T21:01:40.287Z,82.83
2023-03-01T21:06:46.486Z,83.14
2023-03-01T21:11:54.321Z,83.91
2023-03-01T21:17:04.018Z,84.02
2023-03-01T21:22:13.101Z,84.79
2023-03-01T21:27:17.360Z,85.12
2023-03-01T21:32:20.317Z,85.15
2023-03-01T21:37:27.817Z,85.93
2023-03-01T21:42:35.251Z,85.29
2023-03-01T21:47:39.279Z,85.32
2023-03-01T21:52:42.092Z,85.27
2023-03-01T21:57:46.094Z,86.20
2023-03-01T22:02:48.780Z,86.81
2023-03-01T22:07:54.947Z,86.76
2023-03-01T22:13:05.130Z,87.05
2023-03-01T22:18:17.810Z,87.14
2023-03-01T22:23:39.231Z,87.42
2023-03-01T22:28:45.541Z,86.49
2023-03-01T22:33:56.915Z,86.95
2023-03-01T22:39:04.399Z,87.11
2023-03-01T22:44:57.154Z,85.78
2023-03-01T22:50:01.247Z,85.53
2023-03-01T22:55:12.789Z,85.68
2023-03-01T23:00:28.857Z,86.62
2023-03-01T23:05:35.144Z,86.08
2023-03-01T23:10:43.827Z,85.84
2023-03-01T23:16:01.867Z,86.02
2023-03-01T23:21:09.853Z,86.53
2023-03-01T23:26:17.700Z,86.34
2023-03-01T23:31:25.558Z,86.61
2023-03-01T23:36:31.146Z,86.25
2023-03-01T23:41:37.184Z,86.07
2023-03-01T23:46:43.069Z,86.08
2023-03-01T23:51:47.538Z,86.11
2023-03-01T23:56:50.616Z,85.81
